Time;durP1;ratioP1;P1;durP2;ratioP2;P2;SDS_P1;SDS_P2;PMS_P1;PMS_P2;Temp;Humidity;BMP_temperature;BMP_pressure;BME280_temperature;BME280_humidity;BME280_pressure;Samples;Min_cycle;Max_cycle;Signal;HPM_P1;HPM_P2
2022/04/07 00:01:28;;;;;;;1.60;0.80;;;;;;;12.79;83.74;98723.34;5072851;28;20009;-65
2022/04/07 00:03:54;;;;;;;1.98;0.80;;;;;;;12.84;83.39;98726.59;5072975;28;20067;-65
2022/04/07 00:06:20;;;;;;;1.52;0.80;;;;;;;12.85;83.59;98722.97;5072988;28;20052;-65
2022/04/07 00:08:45;;;;;;;7.00;1.10;;;;;;;12.85;84.35;98722.97;5072758;28;20021;-65
2022/04/07 00:11:11;;;;;;;1.60;1.08;;;;;;;12.84;85.16;98720.38;5072641;28;20016;-65
2022/04/07 00:13:37;;;;;;;2.08;1.10;;;;;;;12.83;85.83;98716.03;5073018;28;20364;-65
2022/04/07 00:16:03;;;;;;;1.42;0.90;;;;;;;12.79;86.35;98712.69;5072697;28;20085;-65
2022/04/07 00:18:28;;;;;;;1.70;1.00;;;;;;;12.79;87.05;98717.16;5092509;28;20024;-65
2022/04/07 00:20:54;;;;;;;3.83;0.90;;;;;;;12.79;87.40;98704.69;5081408;28;20500;-65
2022/04/07 00:23:20;;;;;;;1.52;0.90;;;;;;;12.77;87.84;98698.56;5072411;28;20028;-65
2022/04/07 00:25:46;;;;;;;0.70;0.70;;;;;;;12.76;88.18;98691.53;5072765;28;20040;-65
2022/04/07 00:28:11;;;;;;;0.55;0.50;;;;;;;12.76;88.54;98691.53;5072523;28;20103;-65
2022/04/07 00:30:39;;;;;;;1.25;1.05;;;;;;;12.74;88.79;98685.44;5072286;28;20016;-65
2022/04/07 00:33:05;;;;;;;1.17;0.90;;;;;;;12.74;88.88;98682.75;5072496;28;20032;-65
2022/04/07 00:35:31;;;;;;;0.75;0.75;;;;;;;12.70;87.78;98675.88;5071805;28;20429;-65
2022/04/07 00:37:57;;;;;;;1.67;0.80;;;;;;;12.62;86.29;98667.50;5064768;28;20128;-65
2022/04/07 00:40:22;;;;;;;0.95;0.70;;;;;;;12.65;85.58;98671.81;5054651;28;20408;-65
2022/04/07 00:42:50;;;;;;;0.60;0.60;;;;;;;12.56;85.29;98665.22;5052116;28;20417;-65
2022/04/07 00:45:17;;;;;;;1.15;0.75;;;;;;;12.53;85.60;98662.75;5052174;28;20025;-65
2022/04/07 00:47:47;;;;;;;1.05;0.70;;;;;;;12.48;85.12;98651.50;5050845;28;20035;-65
2022/04/07 00:50:15;;;;;;;0.70;0.70;;;;;;;12.42;85.51;98654.53;5056869;28;20498;-65
2022/04/07 00:52:44;;;;;;;1.10;0.70;;;;;;;12.43;86.60;98661.59;5071802;28;20597;-65
2022/04/07 00:55:11;;;;;;;1.50;0.70;;;;;;;12.43;86.40;98660.75;5071939;28;20024;-65
2022/04/07 00:57:39;;;;;;;1.58;0.95;;;;;;;12.43;87.45;98656.28;5071778;28;20066;-65
2022/04/07 01:00:06;;;;;;;1.33;0.70;;;;;;;12.40;86.79;98648.47;5071867;28;20476;-65
2022/04/07 01:02:31;;;;;;;1.48;0.70;;;;;;;12.33;87.08;98649.78;5070955;28;20033;-65
2022/04/07 01:04:57;;;;;;;0.90;0.77;;;;;;;12.29;86.92;98647.41;5071528;28;20402;-65
2022/04/07 01:07:26;;;;;;;1.95;0.70;;;;;;;12.23;86.70;98643.28;5071932;28;20028;-65
2022/04/07 01:09:52;;;;;;;1.70;0.73;;;;;;;12.15;87.76;98645.56;5071682;28;20045;-65
2022/04/07 01:12:17;;;;;;;1.75;1.02;;;;;;;12.12;87.95;98644.91;5057837;28;20096;-65
2022/04/07 01:15:03;;;;;;;1.10;0.70;;;;;;;12.12;87.25;98636.91;5051617;28;20131;-65
2022/04/07 01:17:30;;;;;;;4.10;0.90;;;;;;;12.08;85.79;98633.56;5071988;28;20028;-65
2022/04/07 01:19:55;;;;;;;1.98;0.90;;;;;;;12.10;85.98;98630.81;5066442;28;20051;-65
2022/04/07 01:22:23;;;;;;;1.73;1.63;;;;;;;12.06;83.54;98640.78;5091980;28;20121;-65
2022/04/07 01:24:49;;;;;;;0.80;0.77;;;;;;;12.11;81.39;98633.38;5091745;28;20050;-65
2022/04/07 01:27:16;;;;;;;1.23;0.80;;;;;;;12.18;80.78;98634.72;5088488;28;20024;-65
2022/04/07 01:29:42;;;;;;;0.90;0.73;;;;;;;12.23;80.24;98627.31;5091603;28;20028;-65
2022/04/07 01:32:16;;;;;;;1.58;0.90;;;;;;;12.31;79.28;98627.69;5091867;28;20071;-65
2022/04/07 01:34:42;;;;;;;0.70;0.70;;;;;;;12.36;79.68;98612.25;5073604;28;20024;-65
2022/04/07 01:37:10;;;;;;;1.58;0.80;;;;;;;12.38;78.95;98613.03;5091503;28;20060;-65
2022/04/07 01:39:38;;;;;;;1.35;0.80;;;;;;;12.44;78.34;98614.44;5090127;28;20055;-65
2022/04/07 01:42:05;;;;;;;2.00;0.85;;;;;;;12.48;78.31;98611.50;5091602;28;20059;-65
2022/04/07 01:44:36;;;;;;;1.67;0.80;;;;;;;12.49;78.55;98602.53;5091242;28;20075;-65
2022/04/07 01:47:02;;;;;;;1.42;0.88;;;;;;;12.44;80.08;98604.63;5091361;28;20020;-65
2022/04/07 01:49:30;;;;;;;1.48;1.00;;;;;;;12.38;81.00;98599.69;5091603;28;20060;-65
2022/04/07 01:51:55;;;;;;;1.48;0.80;;;;;;;12.42;81.27;98606.53;5091671;28;20040;-65
2022/04/07 01:54:21;;;;;;;4.30;1.00;;;;;;;12.39;79.95;98612.06;5091514;28;20107;-65
2022/04/07 01:56:47;;;;;;;1.60;0.90;;;;;;;12.38;79.44;98594.38;5091266;28;20048;-64
2022/04/07 01:59:13;;;;;;;1.23;0.90;;;;;;;12.41;79.56;98594.16;5091121;28;20020;-65
2022/04/07 02:01:39;;;;;;;2.55;0.90;;;;;;;12.43;79.08;98592.28;5091289;28;20034;-65
2022/04/07 02:04:04;;;;;;;0.85;0.80;;;;;;;12.43;78.66;98591.41;5091283;28;20032;-65
2022/04/07 02:06:30;;;;;;;2.15;1.50;;;;;;;12.44;78.64;98585.09;5091366;28;20027;-65
2022/04/07 02:08:56;;;;;;;2.13;1.25;;;;;;;12.43;78.15;98594.94;5091415;28;20028;-65
2022/04/07 02:11:22;;;;;;;2.22;1.90;;;;;;;12.43;78.68;98586.94;5091565;28;20020;-65
2022/04/07 02:13:49;;;;;;;2.00;1.05;;;;;;;12.43;79.07;98581.59;5092384;28;20057;-65
2022/04/07 02:16:15;;;;;;;2.78;1.50;;;;;;;12.44;78.50;98585.09;5095188;28;20146;-65
2022/04/07 02:18:40;;;;;;;2.90;1.33;;;;;;;12.43;79.32;98578.94;5095290;28;20453;-65
2022/04/07 02:21:07;;;;;;;1.55;1.20;;;;;;;12.43;78.82;98586.94;5094988;28;20040;-65
2022/04/07 02:23:40;;;;;;;2.03;1.05;;;;;;;12.42;79.50;98582.53;5095124;28;20042;-65
2022/04/07 02:26:09;;;;;;;2.22;0.77;;;;;;;12.40;79.49;98587.13;5094956;28;20168;-65
2022/04/07 02:28:35;;;;;;;1.40;0.80;;;;;;;12.40;79.33;98571.13;5078280;28;20040;-65
2022/04/07 02:31:00;;;;;;;2.15;1.05;;;;;;;12.38;78.67;98583.69;5074990;28;20020;-65
2022/04/07 02:33:26;;;;;;;1.30;0.80;;;;;;;12.39;78.71;98561.41;5074724;28;20523;-65
2022/04/07 02:35:51;;;;;;;3.60;0.80;;;;;;;12.39;78.56;98568.56;5062684;28;20188;-65
2022/04/07 02:38:16;;;;;;;2.05;0.65;;;;;;;12.41;78.25;98564.84;5054831;28;20035;-65
2022/04/07 02:40:42;;;;;;;1.77;0.80;;;;;;;12.41;78.92;98558.63;5061809;28;20021;-65
2022/04/07 02:43:07;;;;;;;1.13;0.70;;;;;;;12.38;79.62;98570.38;5060734;28;20021;-65
2022/04/07 02:45:33;;;;;;;0.93;0.57;;;;;;;12.37;79.41;98565.13;5074300;28;20020;-65
2022/04/07 02:47:58;;;;;;;0.80;0.60;;;;;;;12.35;79.19;98559.91;5074481;28;20028;-65
2022/04/07 02:50:23;;;;;;;0.63;0.63;;;;;;;12.34;79.49;98555.50;5074469;28;20074;-65
2022/04/07 02:52:49;;;;;;;1.45;0.60;;;;;;;12.32;78.89;98544.06;5074313;28;20035;-65
2022/04/07 02:55:14;;;;;;;1.67;0.80;;;;;;;12.34;79.18;98546.66;5073890;28;20183;-65
2022/04/07 02:57:40;;;;;;;1.10;0.88;;;;;;;12.24;79.32;98535.69;5074057;28;20154;-65
2022/04/07 03:00:06;;;;;;;1.10;0.70;;;;;;;12.26;79.77;98533.81;5074201;28;20399;-65
2022/04/07 03:02:32;;;;;;;3.35;1.50;;;;;;;12.21;79.69;98532.41;5074358;28;20343;-65
2022/04/07 03:04:57;;;;;;;1.52;0.80;;;;;;;12.24;79.33;98532.19;5074068;28;20365;-65
2022/04/07 03:07:23;;;;;;;1.25;0.70;;;;;;;12.18;79.67;98533.44;5074175;28;20063;-65
2022/04/07 03:09:48;;;;;;;1.15;0.70;;;;;;;12.23;80.08;98525.13;5073711;28;20024;-65
2022/04/07 03:12:14;;;;;;;2.13;1.00;;;;;;;12.18;80.74;98517.44;5067611;28;20028;-65
2022/04/07 03:14:40;;;;;;;1.70;0.70;;;;;;;12.19;81.37;98524.47;5053844;28;20583;-65
2022/04/07 03:17:06;;;;;;;1.38;0.80;;;;;;;12.17;81.36;98518.41;5070480;28;20028;-65
2022/04/07 03:19:32;;;;;;;1.45;0.80;;;;;;;12.12;82.05;98523.16;5093796;28;20051;-65
2022/04/07 03:21:57;;;;;;;1.63;0.90;;;;;;;12.13;81.94;98524.00;5070600;28;20036;-65
2022/04/07 03:24:24;;;;;;;2.53;0.80;;;;;;;12.15;82.40;98517.63;5053423;28;20029;-65
2022/04/07 03:26:51;;;;;;;1.92;1.38;;;;;;;12.12;82.97;98515.16;5055435;28;20539;-65
2022/04/07 03:29:19;;;;;;;3.05;1.10;;;;;;;12.09;84.09;98515.38;5073703;28;20024;-65
2022/04/07 03:31:45;;;;;;;1.63;1.00;;;;;;;12.15;84.15;98517.63;5068846;28;20388;-65
2022/04/07 03:34:10;;;;;;;4.13;1.70;;;;;;;12.14;84.55;98510.56;5053260;28;20025;-65
2022/04/07 03:36:36;;;;;;;2.97;1.73;;;;;;;12.09;84.57;98496.72;5053741;28;20025;-65
2022/04/07 03:39:02;;;;;;;3.67;2.00;;;;;;;12.13;84.71;98508.88;5058574;28;20545;-65
2022/04/07 03:41:28;;;;;;;5.32;2.42;;;;;;;12.08;85.23;98504.78;5073677;28;20387;-65
2022/04/07 03:43:55;;;;;;;4.45;1.77;;;;;;;12.09;85.19;98487.84;5073557;28;20027;-65
2022/04/07 03:46:21;;;;;;;3.63;1.42;;;;;;;12.11;86.02;98489.44;5073661;28;20048;-65
2022/04/07 03:48:49;;;;;;;1.95;1.27;;;;;;;12.06;86.04;98486.22;5073244;28;20704;-65
2022/04/07 03:51:14;;;;;;;1.65;1.00;;;;;;;12.05;86.68;98479.19;5072854;28;20024;-65
2022/04/07 03:53:40;;;;;;;2.97;1.52;;;;;;;12.06;86.07;98486.22;5072619;28;20445;-65
2022/04/07 03:56:05;;;;;;;1.75;1.35;;;;;;;12.00;86.26;98465.28;5073282;28;20565;-65
2022/04/07 03:58:30;;;;;;;2.92;1.38;;;;;;;12.03;85.77;98465.09;5073019;28;20027;-65
2022/04/07 04:00:57;;;;;;;1.83;1.20;;;;;;;11.99;86.78;98479.56;5072136;28;20096;-65
2022/04/07 04:03:23;;;;;;;2.28;1.30;;;;;;;12.03;86.77;98473.09;5072416;28;20033;-65
2022/04/07 04:05:48;;;;;;;1.73;1.27;;;;;;;11.97;87.55;98481.47;5073016;28;20051;-65
2022/04/07 04:08:14;;;;;;;2.10;1.25;;;;;;;12.02;87.39;98487.38;5072600;28;20105;-65
2022/04/07 04:10:39;;;;;;;3.22;1.15;;;;;;;12.00;86.76;98496.41;5072915;28;20484;-65
2022/04/07 04:13:05;;;;;;;1.90;1.15;;;;;;;11.99;87.17;98484.91;5073000;28;20024;-65
2022/04/07 04:15:30;;;;;;;3.17;1.35;;;;;;;12.04;87.06;98489.94;5072886;28;20476;-65
2022/04/07 04:17:55;;;;;;;1.92;1.02;;;;;;;12.09;86.57;98480.72;5087936;28;20043;-65
2022/04/07 04:20:21;;;;;;;2.70;1.40;;;;;;;11.99;86.91;98479.56;5092763;28;20055;-65
2022/04/07 04:22:46;;;;;;;2.28;1.20;;;;;;;12.02;86.96;98474.06;5092606;28;20094;-65
2022/04/07 04:25:12;;;;;;;2.63;1.30;;;;;;;11.96;87.59;98473.59;5092813;28;20529;-65
2022/04/07 04:27:37;;;;;;;1.85;1.20;;;;;;;11.96;88.08;98458.44;5084157;28;20064;-65
2022/04/07 04:30:03;;;;;;;2.03;1.20;;;;;;;11.94;88.53;98452.38;5072475;28;20020;-65
2022/04/07 04:32:29;;;;;;;1.90;1.08;;;;;;;11.88;87.84;98460.72;5072570;28;20039;-65
2022/04/07 04:34:54;;;;;;;2.10;1.27;;;;;;;11.88;88.96;98445.59;5071980;28;20036;-65
2022/04/07 04:37:25;;;;;;;1.98;1.15;;;;;;;11.90;88.32;98448.16;5063645;28;20032;-65
2022/04/07 04:39:51;;;;;;;5.57;1.20;;;;;;;11.88;88.71;98453.59;5066780;28;20021;-65
2022/04/07 04:42:16;;;;;;;9.13;1.40;;;;;;;11.90;88.81;98443.72;5072494;28;20518;-65
2022/04/07 04:44:42;;;;;;;4.03;1.10;;;;;;;11.90;87.90;98442.84;5072139;28;20031;-65
2022/04/07 04:47:07;;;;;;;3.30;1.10;;;;;;;11.93;88.21;98438.19;5072258;28;20047;-65
2022/04/07 04:49:33;;;;;;;3.25;1.30;;;;;;;11.92;88.10;98427.63;5071681;28;20117;-65
2022/04/07 04:51:58;;;;;;;3.22;1.50;;;;;;;11.87;89.19;98437.72;5072116;28;20066;-65
2022/04/07 04:54:24;;;;;;;3.78;1.52;;;;;;;11.86;89.08;98433.34;5071287;28;20033;-65
2022/04/07 04:56:49;;;;;;;2.42;1.30;;;;;;;11.81;89.21;98430.94;5071723;28;20032;-65
2022/04/07 04:59:14;;;;;;;3.53;1.35;;;;;;;11.84;88.45;98417.44;5071885;28;20032;-65
2022/04/07 05:01:40;;;;;;;2.20;0.95;;;;;;;11.83;89.27;98415.72;5071779;28;20020;-65
2022/04/07 05:04:05;;;;;;;2.55;0.90;;;;;;;11.85;88.65;98413.84;5071852;28;20020;-65
2022/04/07 05:06:31;;;;;;;1.85;1.20;;;;;;;11.90;89.04;98408.19;5071834;28;20424;-65
2022/04/07 05:08:56;;;;;;;2.33;0.80;;;;;;;11.90;88.50;98413.53;5071393;28;20032;-65
2022/04/07 05:11:21;;;;;;;3.67;2.75;;;;;;;11.96;89.13;98405.13;5070187;28;20033;-65
2022/04/07 05:13:47;;;;;;;2.95;0.80;;;;;;;12.06;87.85;98406.25;5053820;28;20043;-65
2022/04/07 05:16:15;;;;;;;1.30;1.10;;;;;;;12.05;88.14;98403.69;5053706;28;20025;-65
2022/04/07 05:18:46;;;;;;;2.17;1.20;;;;;;;12.05;88.39;98390.38;5073303;28;20029;-65
2022/04/07 05:21:13;;;;;;;17.58;2.50;;;;;;;12.14;88.44;98382.63;5050181;28;20045;-67
2022/04/07 05:23:39;;;;;;;1.92;1.48;;;;;;;12.11;87.67;98372.19;5053825;28;20028;-65
2022/04/07 05:26:04;;;;;;;2.10;1.10;;;;;;;12.12;87.36;98384.56;5071048;28;20035;-65
2022/04/07 05:28:30;;;;;;;1.52;1.00;;;;;;;12.14;87.12;98374.63;5070880;28;20081;-65
2022/04/07 05:30:56;;;;;;;1.08;0.98;;;;;;;12.15;87.50;98371.03;5070826;28;20048;-65
2022/04/07 05:33:21;;;;;;;1.48;1.10;;;;;;;12.11;87.38;98380.19;5071931;28;20028;-65
2022/04/07 05:35:47;;;;;;;1.95;0.90;;;;;;;12.12;87.23;98373.91;5071144;28;20024;-64
2022/04/07 05:38:13;;;;;;;1.63;0.95;;;;;;;12.13;88.19;98364.94;5070726;28;20411;-65
2022/04/07 05:40:38;;;;;;;1.10;0.80;;;;;;;12.15;87.69;98370.16;5070717;28;20020;-65
2022/04/07 05:43:04;;;;;;;1.58;0.80;;;;;;;12.13;88.33;98369.41;5071363;28;20077;-65
2022/04/07 05:45:30;;;;;;;1.95;0.95;;;;;;;12.07;89.69;98370.69;5071615;28;20016;-65
2022/04/07 05:47:55;;;;;;;1.52;0.80;;;;;;;12.06;91.43;98366.28;5053429;28;20033;-64
2022/04/07 05:50:21;;;;;;;1.10;0.80;;;;;;;11.88;94.49;98368.34;5076703;28;20650;-64
2022/04/07 05:52:47;;;;;;;1.02;0.70;;;;;;;11.83;95.30;98372.25;5075718;28;20090;-64
2022/04/07 05:55:13;;;;;;;1.75;0.65;;;;;;;11.79;94.90;98370.75;5075249;28;20029;-64
2022/04/07 05:57:38;;;;;;;0.70;0.70;;;;;;;11.81;95.41;98376.84;5072790;28;20849;-64
2022/04/07 06:00:07;;;;;;;1.27;0.73;;;;;;;11.82;95.48;98375.88;5072077;28;20111;-64
2022/04/07 06:02:32;;;;;;;1.40;0.80;;;;;;;11.80;96.10;98372.44;5074957;28;20032;-64
2022/04/07 06:04:58;;;;;;;1.48;0.90;;;;;;;11.77;96.86;98361.97;5067159;28;20086;-64
2022/04/07 06:07:23;;;;;;;1.30;0.80;;;;;;;11.75;97.46;98363.88;5067920;28;20032;-64
2022/04/07 06:09:49;;;;;;;1.27;0.80;;;;;;;11.72;97.94;98364.09;5065784;28;20021;-64
2022/04/07 06:12:15;;;;;;;4.60;1.17;;;;;;;11.69;96.75;98364.28;5062680;28;20025;-64
2022/04/07 06:14:41;;;;;;;1.70;0.88;;;;;;;11.74;97.54;98356.84;5053917;28;20548;-64
2022/04/07 06:17:06;;;;;;;3.35;0.90;;;;;;;11.78;95.71;98358.34;5053855;28;20024;-64
2022/04/07 06:19:31;;;;;;;1.05;0.80;;;;;;;11.79;95.66;98344.09;5058941;28;20139;-64
2022/04/07 06:21:57;;;;;;;0.90;0.80;;;;;;;11.79;96.44;98334.28;5072608;28;20392;-64
2022/04/07 06:24:22;;;;;;;3.17;1.85;;;;;;;11.80;95.18;98325.34;5073281;28;20035;-64
2022/04/07 06:26:49;;;;;;;2.60;1.58;;;;;;;11.78;95.42;98326.38;5092932;28;20080;-64
2022/04/07 06:29:15;;;;;;;1.48;1.02;;;;;;;11.86;95.16;98313.47;5086429;28;20034;-64
2022/04/07 06:31:40;;;;;;;3.22;1.42;;;;;;;11.87;94.73;98315.16;5093686;28;20099;-64
2022/04/07 06:34:06;;;;;;;1.15;0.82;;;;;;;11.92;94.87;98307.72;5093022;28;20027;-64
2022/04/07 06:36:31;;;;;;;1.20;0.88;;;;;;;11.93;93.80;98306.75;5092772;28;20024;-64
2022/04/07 06:38:56;;;;;;;2.00;0.80;;;;;;;11.95;94.21;98288.88;5093018;28;20040;-64
2022/04/07 06:41:22;;;;;;;1.55;0.90;;;;;;;11.95;93.76;98296.88;5091074;28;20431;-64
2022/04/07 06:43:47;;;;;;;1.25;0.82;;;;;;;11.98;94.02;98294.00;5093162;28;20532;-64
2022/04/07 06:46:13;;;;;;;2.38;0.98;;;;;;;11.99;94.17;98293.06;5092938;28;20031;-64
2022/04/07 06:48:38;;;;;;;1.30;1.00;;;;;;;12.00;95.00;98280.56;5076697;28;20054;-64
2022/04/07 06:51:03;;;;;;;0.95;0.80;;;;;;;11.98;94.59;98280.66;5071178;28;20509;-64
2022/04/07 06:53:29;;;;;;;0.88;0.88;;;;;;;12.00;94.19;98267.25;5073684;28;20016;-64
2022/04/07 06:55:54;;;;;;;1.10;0.90;;;;;;;11.99;93.81;98261.09;5072685;28;20139;-64
2022/04/07 06:58:20;;;;;;;0.93;0.70;;;;;;;12.03;94.29;98262.56;5088413;28;20036;-64
2022/04/07 07:00:46;;;;;;;1.30;0.73;;;;;;;12.01;94.18;98261.81;5082163;28;20032;-64
2022/04/07 07:03:15;;;;;;;1.10;0.80;;;;;;;12.03;94.44;98251.91;5092101;28;20044;-64
2022/04/07 07:05:42;;;;;;;2.70;0.70;;;;;;;12.04;94.47;98247.44;5089645;28;20027;-64
2022/04/07 07:08:17;;;;;;;2.35;0.98;;;;;;;12.06;94.43;98240.22;5074162;28;20529;-64
2022/04/07 07:10:48;;;;;;;0.60;0.60;;;;;;;12.06;93.43;98229.56;5093421;28;20040;-64
2022/04/07 07:13:16;;;;;;;1.17;0.98;;;;;;;12.10;92.19;98233.69;5091613;28;20016;-64
2022/04/07 07:15:42;;;;;;;0.80;0.68;;;;;;;12.14;91.77;98236.03;5073969;28;20040;-64
2022/04/07 07:18:08;;;;;;;3.20;1.15;;;;;;;12.19;91.29;98225.94;5091167;28;20471;-64
2022/04/07 07:20:34;;;;;;;4.05;1.50;;;;;;;12.29;90.58;98232.34;5093903;28;20044;-64
2022/04/07 07:22:59;;;;;;;7.97;4.40;;;;;;;12.32;90.16;98234.81;5093983;28;20110;-64
2022/04/07 07:25:25;;;;;;;8.07;2.78;;;;;;;12.31;88.98;98219.78;5075595;28;20139;-64
2022/04/07 07:27:50;;;;;;;18.88;7.80;;;;;;;12.35;89.64;98213.28;5083582;28;20411;-64
2022/04/07 07:30:17;;;;;;;6.10;2.70;;;;;;;12.39;88.00;98220.09;5073706;28;20025;-64
2022/04/07 07:32:44;;;;;;;2.45;2.00;;;;;;;12.48;86.72;98206.16;5073939;28;20472;-64
2022/04/07 07:35:11;;;;;;;2.22;1.00;;;;;;;12.63;86.87;98206.91;5061914;28;20036;-64
2022/04/07 07:37:37;;;;;;;1.27;1.00;;;;;;;12.64;85.82;98197.94;5053715;28;20028;-64
2022/04/07 07:40:11;;;;;;;8.43;1.15;;;;;;;12.73;85.61;98179.50;5067212;28;20027;-64
2022/04/07 07:42:36;;;;;;;0.93;0.70;;;;;;;12.70;84.50;98174.34;5073423;28;20107;-64
2022/04/07 07:45:03;;;;;;;1.33;0.95;;;;;;;12.79;84.47;98184.38;5073214;28;20086;-64
2022/04/07 07:47:28;;;;;;;2.47;1.17;;;;;;;12.78;83.95;98188.00;5073573;28;20036;-64
2022/04/07 07:49:54;;;;;;;1.60;1.08;;;;;;;12.72;83.43;98164.44;5073524;28;20037;-64
2022/04/07 07:52:20;;;;;;;2.35;1.05;;;;;;;12.77;83.28;98162.28;5072997;28;20023;-64
2022/04/07 07:54:45;;;;;;;1.05;0.95;;;;;;;12.84;82.98;98178.72;5073233;28;20039;-64
2022/04/07 07:57:10;;;;;;;3.08;1.30;;;;;;;12.91;81.87;98162.19;5073140;28;20379;-64
2022/04/07 07:59:36;;;;;;;1.45;0.80;;;;;;;13.02;81.75;98159.63;5073118;28;20047;-64
2022/04/07 08:02:01;;;;;;;2.13;1.30;;;;;;;13.07;81.25;98162.81;5072954;28;20023;-64
2022/04/07 08:04:27;;;;;;;0.75;0.75;;;;;;;13.16;80.56;98129.28;5073200;28;20468;-64
2022/04/07 08:06:52;;;;;;;0.77;0.70;;;;;;;13.35;79.75;98144.78;5072909;28;20025;-64
2022/04/07 08:09:18;;;;;;;1.27;0.70;;;;;;;13.44;79.01;98149.44;5072799;28;20032;-64
2022/04/07 08:11:43;;;;;;;2.92;1.10;;;;;;;13.53;77.99;98128.25;5072298;28;20048;-64
2022/04/07 08:14:09;;;;;;;1.80;0.85;;;;;;;13.58;77.70;98133.25;5072761;28;20039;-64
2022/04/07 08:16:38;;;;;;;0.77;0.60;;;;;;;13.67;77.45;98119.22;5076829;28;20408;-64
2022/04/07 08:19:05;;;;;;;1.05;0.70;;;;;;;13.73;78.13;98134.78;5092711;28;20047;-64
2022/04/07 08:21:30;;;;;;;1.55;0.70;;;;;;;13.71;77.94;98120.66;5092894;28;20032;-64
2022/04/07 08:23:56;;;;;;;1.38;0.57;;;;;;;13.79;78.70;98118.28;5067272;28;20523;-64
2022/04/07 08:26:21;;;;;;;1.20;0.63;;;;;;;13.98;77.41;98115.91;5052618;28;20131;-64
2022/04/07 08:28:47;;;;;;;2.58;0.73;;;;;;;14.12;77.39;98110.34;5070590;28;20024;-64
2022/04/07 08:31:12;;;;;;;1.50;0.70;;;;;;;14.11;76.00;98101.50;5072522;28;20025;-64
2022/04/07 08:33:37;;;;;;;2.88;1.23;;;;;;;14.10;76.03;98098.94;5072523;28;20135;-64
2022/04/07 08:36:03;;;;;;;0.88;0.50;;;;;;;13.91;75.32;98090.63;5072151;28;20085;-64
2022/04/07 08:38:29;;;;;;;2.67;0.70;;;;;;;13.90;76.11;98081.78;5072397;28;20028;-64
2022/04/07 08:40:55;;;;;;;1.35;0.65;;;;;;;13.86;76.58;98108.81;5072341;28;20036;-64
2022/04/07 08:43:22;;;;;;;1.17;0.80;;;;;;;13.79;78.60;98102.25;5072479;28;20024;-64
2022/04/07 08:45:49;;;;;;;1.10;0.70;;;;;;;13.67;81.14;98104.03;5072048;28;20436;-64
2022/04/07 08:48:15;;;;;;;1.00;0.73;;;;;;;13.54;82.69;98108.56;5072139;28;20028;-64
2022/04/07 08:50:41;;;;;;;1.13;0.77;;;;;;;13.48;83.29;98102.84;5071927;28;20123;-63
2022/04/07 08:53:07;;;;;;;0.82;0.70;;;;;;;13.34;84.58;98106.56;5072412;28;20104;-63
2022/04/07 08:55:33;;;;;;;0.75;0.60;;;;;;;13.28;87.11;98119.50;5072266;28;20024;-63
2022/04/07 08:58:00;;;;;;;0.63;0.63;;;;;;;13.12;88.18;98095.75;5069506;28;20381;-64
2022/04/07 09:00:26;;;;;;;2.67;0.77;;;;;;;13.03;90.66;98113.28;5052012;28;20431;-64
2022/04/07 09:02:54;;;;;;;2.53;0.90;;;;;;;12.95;90.96;98120.94;5054218;28;20033;-64
2022/04/07 09:05:25;;;;;;;0.70;0.57;;;;;;;12.92;89.54;98105.16;5051745;28;20029;-64
2022/04/07 09:07:52;;;;;;;1.05;0.73;;;;;;;12.95;90.74;98120.94;5051906;28;20380;-64
2022/04/07 09:10:20;;;;;;;1.77;0.70;;;;;;;12.98;90.13;98112.72;5051696;28;20038;-63
2022/04/07 09:12:45;;;;;;;1.55;0.80;;;;;;;12.99;91.35;98111.78;5051852;28;20056;-63
2022/04/07 09:15:14;;;;;;;2.20;0.73;;;;;;;12.94;91.19;98108.59;5051881;28;20049;-64
2022/04/07 09:17:50;;;;;;;0.80;0.60;;;;;;;12.98;89.88;98102.03;5071381;28;20104;-63
2022/04/07 09:20:15;;;;;;;1.75;0.90;;;;;;;13.03;92.25;98097.25;5064379;28;20102;-63
2022/04/07 09:22:41;;;;;;;2.45;1.10;;;;;;;13.12;89.45;98090.41;5071735;28;20466;-63
2022/04/07 09:25:07;;;;;;;3.85;0.98;;;;;;;13.25;89.94;98088.53;5071049;28;20503;-63
2022/04/07 09:27:33;;;;;;;1.95;0.80;;;;;;;13.28;87.99;98087.47;5084883;28;20051;-63
2022/04/07 09:29:58;;;;;;;0.95;0.88;;;;;;;13.30;88.02;98070.34;5091663;28;20080;-63
2022/04/07 09:32:26;;;;;;;1.38;0.60;;;;;;;13.19;88.77;98070.31;5088579;28;20032;-64
2022/04/07 09:34:55;;;;;;;1.15;0.80;;;;;;;13.16;88.51;98055.34;5091602;28;20024;-64
2022/04/07 09:37:22;;;;;;;2.58;0.93;;;;;;;13.23;88.28;98051.28;5091629;28;20024;-64
2022/04/07 09:39:50;;;;;;;1.38;1.00;;;;;;;13.31;87.91;98058.69;5092529;28;20016;-64
2022/04/07 09:42:25;;;;;;;3.85;2.13;;;;;;;13.39;87.25;98044.78;5092701;28;20035;-64
2022/04/07 09:44:57;;;;;;;2.08;1.15;;;;;;;13.42;86.47;98039.22;5091177;28;20386;-64
2022/04/07 09:47:23;;;;;;;1.58;0.98;;;;;;;13.44;85.53;98026.59;5091662;28;20024;-64
2022/04/07 09:49:49;;;;;;;2.28;1.00;;;;;;;13.42;84.49;98028.53;5091680;28;20042;-64
2022/04/07 09:52:20;;;;;;;1.70;1.02;;;;;;;13.51;85.02;98051.88;5091779;28;20098;-64
2022/04/07 09:54:51;;;;;;;1.20;0.73;;;;;;;13.48;85.00;98033.41;5091857;28;20024;-64
2022/04/07 09:57:19;;;;;;;5.10;1.10;;;;;;;13.54;84.30;98049.81;5091281;28;20024;-64
2022/04/07 09:59:45;;;;;;;0.80;0.50;;;;;;;13.58;84.10;98043.28;5091595;28;20102;-64
2022/04/07 10:02:11;;;;;;;0.65;0.65;;;;;;;13.58;82.28;98034.41;5091518;28;20489;-64
2022/04/07 10:04:38;;;;;;;4.03;0.73;;;;;;;13.65;82.59;98028.50;5091291;28;20027;-64
2022/04/07 10:07:05;;;;;;;1.00;0.90;;;;;;;13.83;82.71;98015.53;5091626;28;20028;-64
2022/04/07 10:09:33;;;;;;;1.48;0.70;;;;;;;13.86;81.31;98010.81;5091486;28;20437;-65
2022/04/07 10:11:59;;;;;;;1.48;0.70;;;;;;;13.81;80.94;97998.75;5091043;28;20020;-64
2022/04/07 10:14:27;;;;;;;0.55;0.55;;;;;;;13.78;80.21;98004.34;5091053;28;20062;-64
2022/04/07 10:16:52;;;;;;;1.60;0.88;;;;;;;13.86;80.80;98001.94;5091181;28;20031;-63
2022/04/07 10:19:37;;;;;;;3.25;0.70;;;;;;;13.86;80.81;98004.59;5091211;28;20052;-63
2022/04/07 10:22:18;;;;;;;1.55;0.88;;;;;;;13.84;80.81;98007.41;5070630;28;20384;-63
2022/04/07 10:24:47;;;;;;;1.02;0.57;;;;;;;13.89;80.78;98007.03;5050836;28;20031;-63
2022/04/07 10:27:15;;;;;;;0.70;0.60;;;;;;;13.94;80.35;97988.81;5061723;28;20116;-63
2022/04/07 10:30:01;;;;;;;0.52;0.52;;;;;;;13.93;79.86;97996.00;5059380;28;20021;-63
2022/04/07 10:32:37;;;;;;;1.05;0.57;;;;;;;13.98;80.10;97979.59;5053695;28;20013;-63
2022/04/07 10:35:03;;;;;;;2.40;1.00;;;;;;;13.95;79.90;97974.50;5052452;28;20103;-63
2022/04/07 10:37:42;;;;;;;0.60;0.60;;;;;;;14.03;80.07;97986.28;5054745;28;20040;-63
2022/04/07 10:40:46;;;;;;;0.60;0.50;;;;;;;14.05;79.25;97972.81;5054973;28;20080;-63
2022/04/07 10:43:22;;;;;;;0.40;0.40;;;;;;;14.13;78.80;97981.06;5054489;28;20111;-63
2022/04/07 10:45:49;;;;;;;0.50;0.50;;;;;;;14.21;80.27;97967.94;5054626;28;20255;-63
2022/04/07 10:48:21;;;;;;;4.15;0.77;;;;;;;14.36;78.50;97964.91;5054791;28;20499;-63
2022/04/07 10:50:54;;;;;;;0.60;0.60;;;;;;;14.31;79.79;97952.91;5072594;28;20020;-63
2022/04/07 10:53:31;;;;;;;1.05;0.50;;;;;;;14.32;81.23;97957.25;5074396;28;20102;-63
2022/04/07 10:56:02;;;;;;;0.45;0.40;;;;;;;14.37;80.36;97955.06;5074340;28;20075;-63
2022/04/07 10:58:39;;;;;;;2.97;0.63;;;;;;;14.40;79.58;97961.03;5074601;28;20021;-63
2022/04/07 11:01:05;;;;;;;2.05;0.65;;;;;;;14.40;79.46;97954.81;5074075;28;20487;-63
2022/04/07 11:03:30;;;;;;;0.55;0.52;;;;;;;14.42;79.26;97926.97;5073834;28;20119;-63
2022/04/07 11:06:00;;;;;;;2.67;1.50;;;;;;;14.48;79.30;97937.19;5072194;28;20032;-63
2022/04/07 11:08:30;;;;;;;0.43;0.38;;;;;;;14.57;78.50;97924.88;5054132;28;20033;-63
2022/04/07 11:10:55;;;;;;;0.40;0.40;;;;;;;14.66;78.28;97942.00;5053828;28;20033;-63
2022/04/07 11:13:43;;;;;;;0.30;0.30;;;;;;;14.72;77.58;97912.91;5054186;28;20036;-63
2022/04/07 11:16:25;;;;;;;0.40;0.40;;;;;;;14.77;75.32;97932.13;5056896;28;20480;-63
2022/04/07 11:19:15;;;;;;;1.20;0.50;;;;;;;14.81;75.45;97938.91;5063836;28;20025;-63
2022/04/07 11:21:45;;;;;;;1.80;0.47;;;;;;;14.92;73.33;97904.09;5094077;28;20027;-63
2022/04/07 11:24:26;;;;;;;1.25;0.50;;;;;;;15.02;72.71;97914.88;5088353;28;20388;-63
2022/04/07 11:26:53;;;;;;;0.40;0.40;;;;;;;15.02;73.65;97899.66;5081696;28;20481;-63
2022/04/07 11:29:33;;;;;;;0.50;0.50;;;;;;;15.11;73.21;97901.56;5093844;28;20047;-63
2022/04/07 11:32:09;;;;;;;1.02;0.60;;;;;;;15.09;72.97;97900.81;5094020;28;20020;-63
2022/04/07 11:34:42;;;;;;;1.02;0.50;;;;;;;15.09;73.75;97908.03;5094084;28;20043;-63